Weston, Missouri
Current Conditions -  °F | °C
As of 11:00 AM on Monday 22 Dec 2014 (Local Time) from KMCI Reporting Station
Light Rain Light Rain  
Wind Chill: 37°   Ceiling: 700
Heat Index: 43°   Visibility: 3mi
Dew Point: 43°   Wind: 10mph
Humidity: 100%   Direction: 170°S
Pressure: 29.54"   Gusts: NA
Location:  39.41°N, 94.9°W
Report Text: KMCI 221700Z 17009KT 3SM -RA BR OVC007 06/06 A2954 RMK AO2 SFC VIS 5 P0000 T00610061 $
Loading
Personal Weather Stations






























Interactive Weather Map New forecast layout! Learn more

10-Day Weather Forecast

Advertisements
Track Severe Weather on mobile